Accueil
METAR-TAF:

METAR-TAF

Aéroports :

Aéroport de Charleroi-Bruxelles-Sud

Charleroi, Belgique

latitude: 50-28N, longitude: 004-27E, altitude: 187 m

Observation

Le bulletin a été fait il y a 26 minutes, à 18:50 UTC
Vent 7 kt de nord-est
Température 26°C
Humidité 30%
Pression 1015 hPa
Visibilité 10 km ou plus
pas de nuages en-dessous de 1500 mètres et pas de cumulonimbus.

METAR: EBCI 151850Z 05007KT CAVOK 26/07 Q1015 NOSIG

Heure: 21:16 (19:16 UTC)

Prévision

Le bulletin a été fait il y a 2 heures et 16 minutes, à 17:00 UTC
Prévision valable du 15 à 18 UTC au 16 à 24 UTC
Vent 4 kt de est/nord-est
Visibilité 10 km ou plus
Quelques nuages à une hauteur de 4500 ft
Probabilité 30% :
Temporairement
du 16 à 17 UTC au 16 à 22 UTC
Visibilité: 3000 m
orage, pluie

TAF: EBCI 151700Z 1518/1624 06004KT 9999 FEW045 PROB30 TEMPO 1617/1622 3000 TSRA

Observations et prévisions météorologiques de plus de 4000 aéroports (messages METAR et TAF).

Les stations disponibles sont représentées par des disques jaunes et rouges sur la carte.

Passer la souris dessus pour voir le nom de la station.

Cliquer dessus pour voir les observations et prévisions météorologiques.

Pour changer de carte: cliquez sur les boutons verts avec une croix noire pour zoomer, sur le bouton vert avec un tiret pour effectuer un zoom arrière, ou sur les flèches vertes pour les cartes adjacentes.


METAR-TAF: